Time;durP1;ratioP1;P1;durP2;ratioP2;P2;SDS_P1;SDS_P2;PMS_P1;PMS_P2;Temp;Humidity;BMP_temperature;BMP_pressure;BME280_temperature;BME280_humidity;BME280_pressure;Samples;Min_cycle;Max_cycle;Signal;HPM_P1;HPM_P2
2024/03/26 00:00:19;;;;;;;30.40;14.30;;;;;;;-0.10;78.03;100044.16;107467;1308;22333;-59
2024/03/26 00:02:45;;;;;;;24.50;15.00;;;;;;;-0.10;78.18;100041.78;107503;1313;22362;-60
2024/03/26 00:05:10;;;;;;;25.10;15.30;;;;;;;-0.10;78.19;100039.41;107436;1292;22376;-61
2024/03/26 00:07:36;;;;;;;59.80;14.20;;;;;;;-0.11;78.22;100040.42;107481;1313;22868;-59
2024/03/26 00:10:02;;;;;;;37.90;15.60;;;;;;;-0.13;78.12;100038.52;107494;1313;22416;-60
2024/03/26 00:12:28;;;;;;;25.30;16.70;;;;;;;-0.15;78.16;100037.96;107371;1314;23093;-61
2024/03/26 00:14:53;;;;;;;28.40;16.90;;;;;;;-0.16;78.22;100032.36;107488;1294;22330;-60
2024/03/26 00:17:18;;;;;;;31.80;17.40;;;;;;;-0.16;78.25;100029.82;107499;1313;22291;-60
2024/03/26 00:19:44;;;;;;;24.30;15.90;;;;;;;-0.17;78.08;100031.33;107354;1313;22310;-60
2024/03/26 00:22:09;;;;;;;63.20;20.10;;;;;;;-0.18;77.88;100034.03;107438;1308;22351;-60
2024/03/26 00:24:35;;;;;;;33.90;19.40;;;;;;;-0.18;77.90;100037.58;107433;1294;22298;-61
2024/03/26 00:27:00;;;;;;;74.30;15.80;;;;;;;-0.18;78.05;100038.59;107389;1308;22395;-60
2024/03/26 00:29:26;;;;;;;28.30;16.00;;;;;;;-0.23;78.14;100039.67;107390;1314;22355;-60
2024/03/26 00:31:51;;;;;;;31.10;17.60;;;;;;;-0.24;78.19;100036.78;107422;1310;23215;-60
2024/03/26 00:34:16;;;;;;;28.80;18.70;;;;;;;-0.22;78.21;100033.94;107475;1293;23300;-60
2024/03/26 00:36:42;;;;;;;34.70;20.50;;;;;;;-0.20;78.23;100035.67;107478;1306;22254;-60
2024/03/26 00:39:10;;;;;;;36.90;19.50;;;;;;;-0.18;78.35;100033.86;107409;1312;22893;-62
2024/03/26 00:41:35;;;;;;;34.50;19.40;;;;;;;-0.16;78.65;100035.58;107497;1313;23047;-59
2024/03/26 00:44:01;;;;;;;38.80;21.10;;;;;;;-0.16;78.52;100034.73;107356;1291;22363;-60
2024/03/26 00:46:26;;;;;;;55.00;22.70;;;;;;;-0.13;78.68;100036.65;107468;1314;22318;-59
2024/03/26 00:48:52;;;;;;;90.40;22.20;;;;;;;-0.09;78.54;100033.67;107395;1314;22253;-60
2024/03/26 00:51:17;;;;;;;49.80;25.10;;;;;;;-0.03;78.40;100031.25;107518;1313;22288;-59
2024/03/26 00:53:43;;;;;;;92.50;22.10;;;;;;;-0.00;79.03;100031.27;107352;1307;22372;-60
2024/03/26 00:56:08;;;;;;;95.00;21.40;;;;;;;0.00;78.45;100031.09;107507;1290;22232;-60
2024/03/26 00:58:33;;;;;;;59.10;24.20;;;;;;;0.02;78.50;100030.94;107365;1314;22357;-60
2024/03/26 01:00:59;;;;;;;43.80;21.90;;;;;;;0.01;78.42;100030.59;107486;1313;22246;-62
2024/03/26 01:03:24;;;;;;;46.30;18.70;;;;;;;0.00;78.41;100032.64;107302;1312;22407;-60
2024/03/26 01:05:54;;;;;;;46.30;22.40;;;;;;;0.00;78.42;100035.52;107255;1294;22972;-60
2024/03/26 01:08:20;;;;;;;36.00;20.20;;;;;;;0.01;78.66;100033.83;107304;1313;22354;-59
2024/03/26 01:10:47;;;;;;;37.80;20.90;;;;;;;-0.01;78.72;100031.27;107281;1314;22286;-61
2024/03/26 01:13:13;;;;;;;35.70;21.30;;;;;;;-0.01;78.67;100033.98;107205;1314;22920;-60
2024/03/26 01:15:38;;;;;;;37.00;21.10;;;;;;;0.02;78.88;100030.11;107275;1291;23257;-60
2024/03/26 01:18:04;;;;;;;38.00;21.30;;;;;;;0.04;78.89;100027.94;107298;1313;22273;-59
2024/03/26 01:20:29;;;;;;;44.60;20.20;;;;;;;0.05;78.84;100025.92;107246;1306;22887;-61
2024/03/26 01:22:54;;;;;;;57.20;20.80;;;;;;;0.07;78.45;100029.16;107276;1313;23199;-61
2024/03/26 01:25:20;;;;;;;40.30;20.40;;;;;;;0.05;78.58;100032.35;107176;1296;22287;-61
2024/03/26 01:27:45;;;;;;;58.80;21.40;;;;;;;0.08;79.03;100033.42;107303;1313;22323;-60
2024/03/26 01:30:11;;;;;;;75.70;25.20;;;;;;;0.09;79.11;100032.09;107277;1313;22231;-60
2024/03/26 01:32:36;;;;;;;83.60;26.40;;;;;;;0.12;79.17;100036.88;107295;1313;23161;-61
2024/03/26 01:35:02;;;;;;;51.60;24.50;;;;;;;0.15;79.07;100037.27;107253;1290;22321;-60
2024/03/26 01:37:27;;;;;;;58.90;26.60;;;;;;;0.18;79.13;100036.47;107283;1307;23052;-60
2024/03/26 01:39:53;;;;;;;78.50;24.20;;;;;;;0.20;79.23;100038.71;107308;1313;23271;-60
2024/03/26 01:42:18;;;;;;;70.80;23.70;;;;;;;0.21;79.08;100033.48;107283;1313;22317;-60
2024/03/26 01:44:44;;;;;;;44.10;23.10;;;;;;;0.22;79.24;100034.17;107228;1307;22255;-60
2024/03/26 01:47:09;;;;;;;39.80;21.50;;;;;;;0.24;79.33;100036.58;107281;1292;22249;-61
2024/03/26 01:49:35;;;;;;;47.70;22.50;;;;;;;0.29;79.48;100032.77;107282;1313;22290;-61
2024/03/26 01:52:01;;;;;;;62.00;22.30;;;;;;;0.33;79.52;100031.64;107309;1313;22228;-60
2024/03/26 01:54:27;;;;;;;49.00;22.60;;;;;;;0.38;79.62;100033.08;107281;1307;22341;-60
2024/03/26 01:56:54;;;;;;;48.90;23.00;;;;;;;0.42;79.60;100030.76;107275;1293;23211;-60
2024/03/26 01:59:21;;;;;;;51.20;22.50;;;;;;;0.46;79.88;100026.91;107301;1313;22268;-60
2024/03/26 02:01:46;;;;;;;70.40;21.90;;;;;;;0.50;79.79;100028.67;107297;1307;22444;-60
2024/03/26 02:04:12;;;;;;;85.50;22.00;;;;;;;0.51;79.42;100029.70;107315;1311;22215;-61
2024/03/26 02:06:37;;;;;;;65.40;23.30;;;;;;;0.52;79.57;100033.45;107282;1290;22413;-61
2024/03/26 02:09:03;;;;;;;44.10;22.10;;;;;;;0.54;79.84;100034.98;107276;1310;22330;-60
2024/03/26 02:11:30;;;;;;;46.90;21.70;;;;;;;0.57;79.88;100038.77;107319;1313;22229;-60
2024/03/26 02:13:55;;;;;;;;;;;;;;;0.59;79.86;100037.77;107504;1306;23235;-60
2024/03/26 02:16:20;;;;;;;50.50;20.60;;;;;;;0.60;79.89;100035.25;107497;1294;22307;-60
2024/03/26 02:18:46;;;;;;;127.70;24.80;;;;;;;0.59;79.95;100039.30;107455;1307;22255;-59
2024/03/26 02:21:11;;;;;;;75.00;22.50;;;;;;;0.51;80.35;100039.36;107495;1307;22236;-61
2024/03/26 02:23:37;;;;;;;87.00;19.30;;;;;;;0.42;79.90;100038.23;107533;1307;22360;-61
2024/03/26 02:26:02;;;;;;;65.90;21.20;;;;;;;0.38;80.47;100034.95;107453;1291;22491;-60
2024/03/26 02:28:28;;;;;;;53.50;20.00;;;;;;;0.37;80.29;100028.81;107501;1313;22486;-61
2024/03/26 02:30:53;;;;;;;80.20;22.40;;;;;;;0.38;80.32;100025.44;107519;1313;22124;-61
2024/03/26 02:33:18;;;;;;;55.70;20.60;;;;;;;0.41;80.28;100024.80;107529;1313;24227;-59
2024/03/26 02:35:44;;;;;;;81.80;21.00;;;;;;;0.43;80.43;100024.50;107523;1313;22284;-60
2024/03/26 02:38:09;;;;;;;53.40;20.40;;;;;;;0.43;80.43;100023.14;107495;1293;22254;-60
2024/03/26 02:40:35;;;;;;;66.40;21.50;;;;;;;0.44;80.36;100025.54;107546;1313;23181;-59
2024/03/26 02:43:01;;;;;;;76.40;17.60;;;;;;;0.42;82.09;100026.19;107517;1312;22206;-61
2024/03/26 02:45:27;;;;;;;52.30;16.20;;;;;;;0.32;80.82;100028.92;107415;1313;22299;-60
2024/03/26 02:47:52;;;;;;;47.40;16.20;;;;;;;0.23;81.25;100027.74;107504;1290;22349;-61
2024/03/26 02:50:18;;;;;;;49.40;19.90;;;;;;;0.15;80.84;100027.45;107349;1312;22232;-59
2024/03/26 02:52:43;;;;;;;46.10;18.70;;;;;;;0.12;80.67;100033.50;107539;1306;22386;-60
2024/03/26 02:55:08;;;;;;;48.70;18.90;;;;;;;0.11;80.76;100035.86;107384;1312;22476;-60
2024/03/26 02:57:34;;;;;;;44.10;18.40;;;;;;;0.10;80.69;100038.21;107456;1290;22334;-60
2024/03/26 02:59:59;;;;;;;46.40;19.30;;;;;;;0.09;80.72;100032.94;107478;1313;22706;-60
2024/03/26 03:02:25;;;;;;;48.00;17.70;;;;;;;0.07;80.64;100030.86;107532;1313;22360;-59
2024/03/26 03:04:50;;;;;;;41.80;16.50;;;;;;;0.04;80.45;100033.86;107566;1311;22312;-60
2024/03/26 03:07:15;;;;;;;33.70;16.90;;;;;;;0.00;80.52;100033.14;107488;1294;22370;-61
2024/03/26 03:09:45;;;;;;;39.20;16.50;;;;;;;-0.07;80.53;100031.68;107495;1313;22303;-60
2024/03/26 03:12:10;;;;;;;43.30;16.50;;;;;;;-0.11;80.49;100033.46;107448;1313;22361;-60
2024/03/26 03:14:36;;;;;;;45.60;16.20;;;;;;;-0.15;80.45;100029.31;107304;1312;22252;-61
2024/03/26 03:17:01;;;;;;;38.00;17.00;;;;;;;-0.19;80.53;100031.98;107536;1290;22283;-59
2024/03/26 03:19:26;;;;;;;39.70;16.10;;;;;;;-0.21;80.60;100030.23;107546;1313;22372;-60
2024/03/26 03:21:52;;;;;;;40.60;17.30;;;;;;;-0.27;80.49;100026.91;107524;1306;22283;-59
2024/03/26 03:24:17;;;;;;;36.60;18.70;;;;;;;-0.31;80.50;100030.90;107371;1313;22249;-60
2024/03/26 03:26:43;;;;;;;38.50;17.80;;;;;;;-0.37;80.52;100025.04;107563;1310;22224;-60
2024/03/26 03:29:08;;;;;;;45.50;19.00;;;;;;;-0.39;80.74;100026.70;107561;1290;22275;-59
2024/03/26 03:31:33;;;;;;;42.80;20.90;;;;;;;-0.44;80.71;100027.78;107576;1313;22259;-60
2024/03/26 03:33:59;;;;;;;37.80;18.70;;;;;;;-0.49;80.55;100028.19;107537;1307;22467;-61
2024/03/26 03:36:24;;;;;;;34.00;18.30;;;;;;;-0.56;80.47;100028.59;107388;1305;22250;-60
2024/03/26 03:38:49;;;;;;;41.70;18.30;;;;;;;-0.60;80.53;100024.11;107550;1290;22805;-61
2024/03/26 03:41:15;;;;;;;52.00;19.20;;;;;;;-0.63;80.48;100018.46;107561;1313;24445;-59
2024/03/26 03:43:40;;;;;;;53.60;20.30;;;;;;;-0.63;80.68;100018.96;107581;1307;22347;-60
2024/03/26 03:46:06;;;;;;;74.70;25.20;;;;;;;-0.65;80.79;100021.80;107556;1313;22241;-59
2024/03/26 03:48:31;;;;;;;71.20;27.00;;;;;;;-0.69;80.59;100020.73;107426;1296;22342;-60
2024/03/26 03:50:56;;;;;;;56.80;23.10;;;;;;;-0.75;80.33;100018.06;107547;1313;22313;-62
2024/03/26 03:53:22;;;;;;;55.30;23.20;;;;;;;-0.79;80.46;100014.44;107439;1314;22262;-59
2024/03/26 03:55:47;;;;;;;72.30;26.20;;;;;;;-0.81;80.37;100022.68;107479;1313;22261;-60
2024/03/26 03:58:13;;;;;;;91.10;29.00;;;;;;;-0.86;80.49;100028.50;107548;1290;22357;-60
2024/03/26 04:00:38;;;;;;;56.90;25.60;;;;;;;-0.95;80.47;100030.00;107583;1309;22349;-61
2024/03/26 04:03:04;;;;;;;74.90;22.80;;;;;;;-0.94;80.33;100032.05;107567;1313;23009;-60
2024/03/26 04:05:29;;;;;;;60.30;19.60;;;;;;;-0.93;80.11;100036.48;107567;1313;22299;-61
2024/03/26 04:07:55;;;;;;;44.80;18.30;;;;;;;-0.95;80.92;100041.15;107539;1290;22284;-61
2024/03/26 04:10:20;;;;;;;49.80;19.80;;;;;;;-0.98;80.77;100043.80;107575;1313;22284;-61
2024/03/26 04:12:45;;;;;;;55.20;23.90;;;;;;;-0.98;81.30;100047.36;107561;1313;22399;-60
2024/03/26 04:15:11;;;;;;;60.00;24.90;;;;;;;-0.98;81.41;100046.35;107407;1313;22261;-61
2024/03/26 04:17:36;;;;;;;60.20;23.80;;;;;;;-0.98;81.12;100049.89;107563;1313;22289;-60
2024/03/26 04:20:02;;;;;;;63.60;24.20;;;;;;;-1.02;80.96;100051.51;107547;1294;22482;-60
2024/03/26 04:22:28;;;;;;;56.40;23.90;;;;;;;-1.04;81.01;100053.84;107583;1309;22292;-61
2024/03/26 04:24:53;;;;;;;87.20;25.60;;;;;;;-1.05;80.86;100057.73;107584;1310;22312;-61
2024/03/26 04:27:19;;;;;;;83.90;26.30;;;;;;;-1.13;81.57;100059.23;107561;1307;22307;-60
2024/03/26 04:29:44;;;;;;;57.20;23.80;;;;;;;-1.23;81.61;100061.22;107523;1294;22280;-60
2024/03/26 04:32:09;;;;;;;39.00;20.10;;;;;;;-1.25;81.20;100058.47;107563;1313;22204;-61
2024/03/26 04:34:35;;;;;;;52.40;25.00;;;;;;;-1.23;81.19;100058.34;107567;1313;22278;-60
2024/03/26 04:37:02;;;;;;;42.70;20.60;;;;;;;-1.19;81.20;100057.77;107584;1310;22244;-61
2024/03/26 04:39:28;;;;;;;48.80;20.20;;;;;;;-1.11;81.75;100055.91;107541;1293;22451;-59
2024/03/26 04:41:54;;;;;;;49.10;20.50;;;;;;;-1.00;81.62;100055.61;107587;1313;22320;-60
2024/03/26 04:44:20;;;;;;;62.70;22.20;;;;;;;-0.91;82.78;100060.88;107467;1313;22360;-60
2024/03/26 04:46:45;;;;;;;44.30;22.20;;;;;;;-0.82;82.06;100060.91;107423;1313;22327;-59
2024/03/26 04:49:11;;;;;;;61.70;24.50;;;;;;;-0.75;81.91;100057.33;107566;1294;22283;-60
2024/03/26 04:51:36;;;;;;;64.80;23.90;;;;;;;-0.69;82.75;100057.96;107572;1307;22374;-59
2024/03/26 04:54:02;;;;;;;50.90;23.20;;;;;;;-0.62;82.19;100057.08;107493;1313;22367;-61
2024/03/26 04:56:27;;;;;;;48.70;22.10;;;;;;;-0.56;82.19;100052.47;107457;1313;22276;-61
2024/03/26 04:58:53;;;;;;;50.30;23.10;;;;;;;-0.48;82.36;100054.29;107607;1289;22210;-61
2024/03/26 05:01:18;;;;;;;58.40;23.10;;;;;;;-0.42;82.36;100052.54;107603;1307;22279;-60
2024/03/26 05:03:44;;;;;;;49.90;21.70;;;;;;;-0.37;82.38;100049.42;107578;1310;22407;-60
2024/03/26 05:06:09;;;;;;;38.40;22.50;;;;;;;-0.29;82.29;100049.56;107542;1310;22329;-60
2024/03/26 05:08:34;;;;;;;40.90;22.00;;;;;;;-0.21;82.28;100050.05;107519;1313;22293;-60
2024/03/26 05:11:00;;;;;;;43.80;22.00;;;;;;;-0.13;82.38;100048.34;107399;1297;22615;-61
2024/03/26 05:13:25;;;;;;;58.60;23.00;;;;;;;-0.06;82.23;100049.14;107563;1313;22284;-60
2024/03/26 05:15:51;;;;;;;56.40;23.60;;;;;;;0.02;82.22;100047.89;107576;1305;24491;-61
2024/03/26 05:18:16;;;;;;;48.20;22.40;;;;;;;0.07;82.24;100048.65;107532;1314;24316;-60
2024/03/26 05:20:41;;;;;;;54.20;22.70;;;;;;;0.14;82.35;100052.85;107528;1297;22355;-60
2024/03/26 05:23:07;;;;;;;66.80;23.30;;;;;;;0.21;82.46;100050.94;107547;1313;22263;-61
2024/03/26 05:25:32;;;;;;;63.20;23.10;;;;;;;0.25;82.31;100050.33;107528;1307;22261;-61
2024/03/26 05:27:58;;;;;;;68.10;22.60;;;;;;;0.31;82.45;100051.95;107568;1313;22274;-62
2024/03/26 05:30:23;;;;;;;39.20;22.40;;;;;;;0.38;82.35;100052.39;107379;1296;22346;-60
2024/03/26 05:32:48;;;;;;;46.90;22.30;;;;;;;0.42;82.60;100050.25;107566;1313;22402;-61
2024/03/26 05:35:14;;;;;;;42.80;22.80;;;;;;;0.41;82.40;100048.05;107345;1313;22257;-60
2024/03/26 05:37:47;;;;;;;43.60;22.30;;;;;;;0.46;82.58;100048.30;107508;1313;22314;-60
2024/03/26 05:40:13;;;;;;;41.90;22.00;;;;;;;0.49;82.22;100050.37;107354;1292;22473;-61
2024/03/26 05:42:38;;;;;;;35.40;20.60;;;;;;;0.56;82.39;100049.09;107391;1307;22232;-61
2024/03/26 05:45:04;;;;;;;37.10;21.70;;;;;;;0.67;82.43;100046.89;107296;1307;22398;-62
2024/03/26 05:47:29;;;;;;;43.10;24.30;;;;;;;0.76;82.53;100041.93;107289;1313;23166;-63
2024/03/26 05:49:55;;;;;;;34.50;22.00;;;;;;;0.85;82.42;100040.87;107161;1291;22297;-62
2024/03/26 05:52:20;;;;;;;38.70;21.90;;;;;;;0.95;82.41;100038.96;107239;1306;22332;-61
2024/03/26 05:54:45;;;;;;;41.50;24.00;;;;;;;1.02;82.45;100035.83;107289;1307;22258;-62
2024/03/26 05:57:11;;;;;;;41.80;23.60;;;;;;;1.15;82.55;100035.14;107305;1313;22245;-63
2024/03/26 05:59:36;;;;;;;45.40;23.50;;;;;;;1.26;82.39;100039.52;107287;1313;22265;-63
2024/03/26 06:02:01;;;;;;;44.00;26.40;;;;;;;1.37;82.45;100032.85;107189;1296;22357;-63
2024/03/26 06:04:27;;;;;;;43.10;24.60;;;;;;;1.50;82.59;100031.48;107293;1313;22309;-61
2024/03/26 06:06:52;;;;;;;46.20;25.00;;;;;;;1.66;82.67;100030.09;107119;1306;22380;-63
2024/03/26 06:09:17;;;;;;;39.70;22.30;;;;;;;1.82;82.81;100024.31;107278;1313;22481;-63
2024/03/26 06:11:43;;;;;;;43.70;23.30;;;;;;;1.95;82.62;100023.93;107278;1294;22258;-63
2024/03/26 06:14:08;;;;;;;39.70;24.90;;;;;;;2.12;83.05;100028.30;107300;1300;22400;-63
2024/03/26 06:16:34;;;;;;;31.50;20.10;;;;;;;2.37;83.27;100029.37;107284;1313;22221;-61
2024/03/26 06:18:59;;;;;;;32.30;19.50;;;;;;;2.67;83.68;100023.77;107196;1313;22317;-63
2024/03/26 06:21:24;;;;;;;28.10;19.70;;;;;;;3.00;84.16;100026.52;107266;1290;24399;-62
2024/03/26 06:23:50;;;;;;;29.30;19.20;;;;;;;3.27;83.82;100029.00;107280;1306;22395;-61
2024/03/26 06:26:15;;;;;;;23.80;18.50;;;;;;;3.48;83.91;100027.89;107168;1306;22402;-60
2024/03/26 06:28:40;;;;;;;26.70;17.80;;;;;;;3.84;84.34;100029.31;107161;1313;22323;-58
2024/03/26 06:31:06;;;;;;;24.00;16.70;;;;;;;4.17;84.28;100033.27;107229;1294;22338;-58
2024/03/26 06:33:31;;;;;;;20.40;15.50;;;;;;;4.43;84.17;100035.82;107201;1305;22230;-57
2024/03/26 06:35:57;;;;;;;19.00;14.30;;;;;;;4.69;84.17;100033.55;107287;1313;22268;-58
2024/03/26 06:38:22;;;;;;;16.10;14.10;;;;;;;4.96;84.18;100031.10;107243;1313;22264;-58
2024/03/26 06:40:48;;;;;;;18.80;12.80;;;;;;;5.23;84.17;100029.29;107257;1293;22430;-58
2024/03/26 06:43:13;;;;;;;19.40;12.70;;;;;;;5.52;84.35;100026.59;107298;1313;22370;-58
2024/03/26 06:45:38;;;;;;;20.30;13.50;;;;;;;5.79;84.25;100026.94;107292;1310;22289;-58
2024/03/26 06:48:04;;;;;;;14.40;12.30;;;;;;;6.05;84.16;100033.81;107266;1313;22255;-57
2024/03/26 06:50:29;;;;;;;21.50;13.60;;;;;;;6.22;84.09;100038.14;107090;1313;22436;-58
2024/03/26 06:52:55;;;;;;;16.60;12.90;;;;;;;6.51;84.14;100034.11;107258;1291;23170;-57
2024/03/26 06:55:22;;;;;;;16.80;11.90;;;;;;;6.69;82.60;100036.36;107283;1313;22236;-59
2024/03/26 06:57:47;;;;;;;17.40;12.20;;;;;;;6.68;82.87;100033.27;107170;1307;22425;-55
2024/03/26 07:00:14;;;;;;;17.20;13.70;;;;;;;6.76;83.29;100034.73;107228;1306;23009;-59
2024/03/26 07:02:39;;;;;;;21.30;15.00;;;;;;;7.02;83.59;100032.04;107242;1293;22384;-58
2024/03/26 07:05:06;;;;;;;19.00;14.70;;;;;;;7.17;82.52;100028.62;107271;1309;22335;-57
2024/03/26 07:07:33;;;;;;;18.20;13.40;;;;;;;7.31;83.45;100031.17;107220;1313;22305;-59
2024/03/26 07:09:58;;;;;;;;;;;;;;;7.43;82.87;100028.46;107215;1305;22496;-58
2024/03/26 07:12:24;;;;;;;14.90;11.30;;;;;;;7.64;82.22;100027.83;107141;1291;22317;-58
2024/03/26 07:14:50;;;;;;;12.30;11.10;;;;;;;8.03;83.38;100021.59;107140;1306;22295;-59
2024/03/26 07:17:15;;;;;;;13.20;11.60;;;;;;;8.63;83.17;100019.59;107187;1302;22359;-59
2024/03/26 07:19:41;;;;;;;12.70;11.30;;;;;;;9.10;81.64;100016.10;107123;1313;150976;-58
2024/03/26 07:22:06;;;;;;;15.50;11.80;;;;;;;9.40;82.15;100013.09;107188;1293;23271;-59
2024/03/26 07:24:32;;;;;;;11.80;10.60;;;;;;;9.89;82.78;100011.46;107205;1306;22313;-60
2024/03/26 07:26:57;;;;;;;11.20;10.10;;;;;;;10.31;81.34;100013.40;107237;1313;22249;-59
2024/03/26 07:29:23;;;;;;;12.50;11.20;;;;;;;10.62;80.92;100002.44;107224;1313;22267;-60
2024/03/26 07:31:48;;;;;;;12.60;10.80;;;;;;;11.24;82.83;100003.30;107161;1291;22415;-59
2024/03/26 07:34:13;;;;;;;11.00;9.90;;;;;;;11.82;80.32;100002.09;107226;1313;23008;-59
2024/03/26 07:36:40;;;;;;;;;;;;;;;12.14;78.82;99998.98;107235;1313;22555;-59
2024/03/26 07:39:06;;;;;;;10.80;9.70;;;;;;;12.26;78.18;100002.06;107221;1310;22353;-59
2024/03/26 07:41:31;;;;;;;11.10;9.60;;;;;;;12.56;79.58;99999.16;107204;1307;22278;-60
2024/03/26 07:43:57;;;;;;;10.90;9.80;;;;;;;13.19;80.94;99997.77;107175;1291;22298;-60
2024/03/26 07:46:23;;;;;;;10.30;9.40;;;;;;;13.81;74.81;99997.15;107206;1313;23121;-60
2024/03/26 07:48:48;;;;;;;11.00;10.00;;;;;;;13.93;70.14;99995.10;107115;1313;22373;-60
2024/03/26 07:51:13;;;;;;;11.30;9.30;;;;;;;14.39;75.50;100000.31;107150;1306;22239;-60
2024/03/26 07:53:40;;;;;;;10.40;9.40;;;;;;;14.93;74.87;100000.45;107192;1294;22284;-61
2024/03/26 07:56:06;;;;;;;10.70;9.70;;;;;;;15.61;76.95;99998.36;107195;1307;22279;-60
2024/03/26 07:58:32;;;;;;;9.60;8.70;;;;;;;16.47;71.18;99996.65;107230;1313;23038;-60
2024/03/26 08:00:57;;;;;;;9.90;8.80;;;;;;;16.60;65.03;100000.68;107210;1313;22251;-60
2024/03/26 08:03:22;;;;;;;9.60;8.80;;;;;;;16.67;68.83;99995.13;107196;1295;23078;-59
2024/03/26 08:05:48;;;;;;;9.90;9.00;;;;;;;17.20;71.39;99995.62;107219;1306;22319;-59
2024/03/26 08:08:13;;;;;;;8.40;7.60;;;;;;;17.73;68.56;99996.39;107227;1313;22366;-60
2024/03/26 08:10:39;;;;;;;8.40;7.70;;;;;;;18.08;70.98;99995.68;107231;1313;22302;-60
2024/03/26 08:13:04;;;;;;;6.70;6.10;;;;;;;18.30;62.91;99992.27;107203;1305;22220;-60
2024/03/26 08:15:29;;;;;;;7.50;6.80;;;;;;;18.39;64.80;99992.12;107214;1313;22259;-59
2024/03/26 08:17:55;;;;;;;6.60;6.00;;;;;;;18.81;65.21;99985.28;107246;1313;23046;-60
2024/03/26 08:20:20;;;;;;;7.80;6.20;;;;;;;19.26;65.32;99987.23;107216;1313;22344;-62
2024/03/26 08:22:46;;;;;;;6.00;5.40;;;;;;;19.74;66.87;99985.72;107163;1297;22387;-60
2024/03/26 08:25:11;;;;;;;6.60;6.10;;;;;;;20.25;66.68;99978.93;107195;1291;22242;-64
2024/03/26 08:27:39;;;;;;;6.40;5.80;;;;;;;20.35;63.27;99970.37;107139;1313;23049;-61
2024/03/26 08:30:10;;;;;;;6.20;5.60;;;;;;;20.41;60.55;99968.72;107266;1313;22378;-62
2024/03/26 08:32:35;;;;;;;6.10;5.60;;;;;;;20.56;63.20;99972.45;107242;1313;22381;-60
2024/03/26 08:35:01;;;;;;;5.40;5.00;;;;;;;20.71;58.35;99969.48;107201;1292;22287;-60
2024/03/26 08:37:26;;;;;;;5.70;5.20;;;;;;;20.75;54.55;99966.63;107202;1307;22273;-60
2024/03/26 08:39:53;;;;;;;5.90;5.40;;;;;;;20.30;55.34;99964.75;107220;1313;22425;-60
2024/03/26 08:42:18;;;;;;;;;;;;;;;19.89;53.66;99959.06;107252;1313;22473;-60
2024/03/26 08:44:44;;;;;;;5.70;5.20;;;;;;;19.59;55.37;99956.80;107179;1290;22365;-60
2024/03/26 08:47:10;;;;;;;8.00;6.10;;;;;;;19.82;56.15;99951.29;107196;1313;22369;-60
2024/03/26 08:49:35;;;;;;;5.60;5.10;;;;;;;20.11;54.80;99949.02;107211;1307;22404;-59
2024/03/26 08:52:01;;;;;;;6.10;5.20;;;;;;;19.92;53.26;99950.98;107112;1308;22385;-60
2024/03/26 08:54:26;;;;;;;5.90;5.30;;;;;;;19.44;51.87;99951.45;107162;1293;23276;-60
2024/03/26 08:56:51;;;;;;;5.50;4.70;;;;;;;19.70;54.03;99953.50;107116;1310;22224;-60
2024/03/26 08:59:17;;;;;;;5.50;5.00;;;;;;;20.50;54.73;99953.06;107202;1307;23215;-60
2024/03/26 09:01:43;;;;;;;5.40;5.00;;;;;;;20.69;51.68;99949.52;107188;1310;22455;-61
2024/03/26 09:04:08;;;;;;;5.30;4.90;;;;;;;20.74;51.41;99946.88;107091;1294;22368;-60
2024/03/26 09:06:34;;;;;;;5.80;5.30;;;;;;;21.15;51.78;99940.86;107114;1313;22309;-60
2024/03/26 09:08:59;;;;;;;5.60;5.10;;;;;;;21.37;49.52;99939.42;107130;1306;22415;-60
2024/03/26 09:11:25;;;;;;;4.80;4.40;;;;;;;21.48;49.40;99935.14;107128;1311;22303;-60
2024/03/26 09:13:50;;;;;;;4.90;4.50;;;;;;;21.66;48.23;99932.44;107389;1291;22533;-60
2024/03/26 09:16:15;;;;;;;5.70;5.30;;;;;;;22.13;46.25;99928.46;107482;1305;24373;-61
2024/03/26 09:18:41;;;;;;;6.10;5.30;;;;;;;21.96;46.99;99916.65;107498;1313;23013;-60
2024/03/26 09:21:06;;;;;;;5.30;4.90;;;;;;;22.17;45.57;99912.70;107495;1307;22251;-61
2024/03/26 09:23:31;;;;;;;5.60;5.10;;;;;;;21.61;41.55;99913.48;107408;1313;22309;-59
2024/03/26 09:25:57;;;;;;;5.90;5.30;;;;;;;21.37;44.95;99904.36;107322;1297;22373;-61
2024/03/26 09:28:22;;;;;;;6.30;4.90;;;;;;;22.36;45.35;99908.60;107487;1313;22345;-60
2024/03/26 09:30:51;;;;;;;4.70;4.30;;;;;;;22.81;42.67;99908.30;107387;1304;22376;-59
2024/03/26 09:33:18;;;;;;;5.50;4.50;;;;;;;22.72;41.65;99904.08;107483;1307;22371;-61
2024/03/26 09:35:44;;;;;;;5.10;4.60;;;;;;;22.30;42.07;99899.77;107421;1308;22258;-61
2024/03/26 09:38:09;;;;;;;4.50;4.20;;;;;;;22.60;43.32;99897.77;107394;1297;22404;-60
2024/03/26 09:40:53;;;;;;;4.70;4.20;;;;;;;23.22;41.68;99896.23;107560;1306;22458;-61
2024/03/26 09:43:24;;;;;;;4.90;4.40;;;;;;;22.99;39.08;99894.91;107532;1305;22654;-60
2024/03/26 09:45:50;;;;;;;5.40;3.90;;;;;;;22.62;40.87;99889.05;107427;1297;22437;-61
2024/03/26 09:48:16;;;;;;;4.40;4.00;;;;;;;22.60;39.04;99881.58;107545;1307;22289;-59
2024/03/26 09:50:43;;;;;;;5.20;3.70;;;;;;;22.62;40.69;99879.70;107420;1306;22415;-60
2024/03/26 09:53:11;;;;;;;4.80;4.40;;;;;;;23.17;37.37;99884.47;107429;1307;22228;-59
2024/03/26 09:55:37;;;;;;;4.50;4.10;;;;;;;22.97;35.51;99875.88;107507;1290;22348;-59
2024/03/26 09:58:03;;;;;;;5.80;4.50;;;;;;;22.27;36.38;99873.27;107404;1313;21983;-60
2024/03/26 10:00:31;;;;;;;4.60;4.20;;;;;;;21.90;36.82;99864.48;107503;1309;22296;-58
2024/03/26 10:02:59;;;;;;;4.30;3.90;;;;;;;22.13;38.22;99861.91;107578;1308;22233;-59
2024/03/26 10:05:25;;;;;;;4.10;3.60;;;;;;;22.90;37.41;99858.48;107558;1294;22325;-60
2024/03/26 10:07:51;;;;;;;5.00;4.50;;;;;;;22.33;33.44;99856.98;107531;1313;22174;-60
2024/03/26 10:10:17;;;;;;;4.00;3.70;;;;;;;21.66;35.67;99856.66;107482;1306;22265;-60
2024/03/26 10:12:42;;;;;;;4.00;3.70;;;;;;;21.90;36.83;99848.54;107479;1307;22863;-60
2024/03/26 10:15:08;;;;;;;4.20;3.90;;;;;;;22.30;36.46;99846.02;107582;1291;22268;-61
2024/03/26 10:17:34;;;;;;;3.60;3.30;;;;;;;22.62;35.73;99840.86;107420;1313;22505;-61
2024/03/26 10:20:08;;;;;;;4.50;4.00;;;;;;;23.11;34.08;99841.41;107481;1313;22261;-60
2024/03/26 10:22:34;;;;;;;4.40;4.00;;;;;;;23.08;33.71;99843.02;107379;1297;22261;-58
2024/03/26 10:24:59;;;;;;;4.10;3.80;;;;;;;21.73;31.24;99845.02;107143;1307;22280;-60
2024/03/26 10:27:25;;;;;;;4.80;4.30;;;;;;;20.78;32.88;99833.82;107102;1293;22213;-59
2024/03/26 10:29:52;;;;;;;3.80;3.50;;;;;;;21.21;33.40;99827.40;106948;1306;22319;-59
2024/03/26 10:32:23;;;;;;;6.10;3.50;;;;;;;20.78;31.02;99829.77;107006;1310;22269;-60
2024/03/26 10:34:56;;;;;;;4.30;3.90;;;;;;;20.73;32.50;99826.94;106934;1312;22226;-60
2024/03/26 10:37:24;;;;;;;4.20;3.80;;;;;;;21.56;34.17;99823.14;106991;1293;22334;-60
2024/03/26 10:39:55;;;;;;;4.30;3.50;;;;;;;22.46;32.92;99822.44;107021;1315;23003;-60
2024/03/26 10:42:25;;;;;;;4.70;4.30;;;;;;;22.36;31.81;99821.50;106862;1315;23318;-60
2024/03/26 10:44:57;;;;;;;4.40;3.90;;;;;;;21.86;32.56;99821.11;106964;1312;22351;-60
2024/03/26 10:47:24;;;;;;;4.60;4.20;;;;;;;21.84;33.03;99822.33;106921;1297;22357;-60
2024/03/26 10:49:51;;;;;;;5.90;5.40;;;;;;;21.85;32.83;99814.38;106835;1315;23314;-59
2024/03/26 10:52:19;;;;;;;5.00;4.60;;;;;;;21.77;32.96;99809.38;107065;1309;22772;-59
2024/03/26 10:54:47;;;;;;;5.00;4.60;;;;;;;21.43;32.85;99809.77;107025;1308;22248;-60
2024/03/26 10:57:16;;;;;;;5.70;5.20;;;;;;;20.67;33.29;99807.56;106839;1296;22262;-59
2024/03/26 10:59:41;;;;;;;4.40;4.00;;;;;;;21.06;34.09;99802.67;107018;1315;22507;-59
2024/03/26 11:02:08;;;;;;;4.80;4.40;;;;;;;21.59;32.61;99803.17;107022;1307;22398;-59
2024/03/26 11:04:34;;;;;;;4.90;4.20;;;;;;;21.81;32.31;99797.46;107040;1314;22841;-58